createdAt,value
2018-09-26T00:01:42.941Z,1.43
2018-09-26T00:04:49.147Z,1.20
2018-09-26T00:07:52.685Z,1.30
2018-09-26T00:10:56.183Z,1.43
2018-09-26T00:13:59.666Z,1.20
2018-09-26T00:17:03.160Z,1.50
2018-09-26T00:20:07.587Z,1.10
2018-09-26T00:23:10.929Z,1.40
2018-09-26T00:26:14.383Z,1.20
2018-09-26T00:29:17.909Z,1.30
2018-09-26T00:32:21.375Z,1.27
2018-09-26T00:35:25.897Z,1.60
2018-09-26T00:38:29.317Z,1.40
2018-09-26T00:41:32.692Z,1.30
2018-09-26T00:44:36.329Z,1.33
2018-09-26T00:47:39.804Z,1.30
2018-09-26T00:50:43.188Z,1.23
2018-09-26T00:53:46.617Z,1.23
2018-09-26T00:56:50.038Z,1.33
2018-09-26T00:59:53.522Z,1.10
2018-09-26T01:02:58.011Z,1.50
2018-09-26T01:06:01.434Z,1.23
2018-09-26T01:09:07.718Z,1.40
2018-09-26T01:12:11.087Z,1.23
2018-09-26T01:15:14.496Z,1.40
2018-09-26T01:18:17.938Z,1.23
2018-09-26T01:21:21.400Z,1.60
2018-09-26T01:24:24.817Z,1.67
2018-09-26T01:27:32.040Z,1.20
2018-09-26T01:30:35.565Z,1.40
2018-09-26T01:33:39.005Z,1.43
2018-09-26T01:36:42.401Z,1.20
2018-09-26T01:39:45.796Z,1.33
2018-09-26T01:42:49.197Z,1.30
2018-09-26T01:45:52.598Z,1.67
2018-09-26T01:48:55.990Z,1.20
2018-09-26T01:51:59.491Z,1.00
2018-09-26T01:55:02.987Z,1.40
2018-09-26T01:58:06.549Z,1.20
2018-09-26T02:01:09.999Z,1.10
2018-09-26T02:04:13.394Z,1.60
2018-09-26T02:07:16.814Z,1.47
2018-09-26T02:10:20.235Z,1.10
2018-09-26T02:13:23.578Z,1.50
2018-09-26T02:16:26.996Z,1.03
2018-09-26T02:19:30.467Z,1.33
2018-09-26T02:22:33.905Z,1.27
2018-09-26T02:25:38.333Z,1.30
2018-09-26T02:28:41.792Z,1.30
2018-09-26T02:31:45.235Z,1.50
2018-09-26T02:34:49.654Z,1.10
2018-09-26T02:37:53.052Z,1.50
2018-09-26T02:40:56.473Z,1.57
2018-09-26T02:43:59.858Z,1.30
2018-09-26T02:47:03.687Z,1.20
2018-09-26T02:50:07.126Z,1.30
2018-09-26T02:53:10.592Z,1.70
2018-09-26T02:56:13.976Z,1.40
2018-09-26T02:59:17.372Z,1.60
2018-09-26T03:02:20.794Z,1.40
2018-09-26T03:05:24.224Z,1.30
2018-09-26T03:08:27.567Z,1.20
2018-09-26T03:11:31.073Z,1.20
2018-09-26T03:14:34.583Z,1.13
2018-09-26T03:17:38.065Z,1.10
2018-09-26T03:20:41.592Z,1.30
2018-09-26T03:23:45.091Z,1.60
2018-09-26T03:26:48.616Z,1.30
2018-09-26T03:29:52.096Z,1.10
2018-09-26T03:32:55.600Z,1.40
2018-09-26T03:35:59.289Z,1.23
2018-09-26T03:39:02.918Z,1.60
2018-09-26T03:42:06.445Z,1.67
2018-09-26T03:45:09.921Z,1.60
2018-09-26T03:48:13.532Z,1.50
2018-09-26T03:51:17.063Z,1.20
2018-09-26T03:54:20.532Z,1.40
2018-09-26T03:57:24.035Z,1.30
2018-09-26T04:00:27.513Z,1.50
2018-09-26T04:03:31.030Z,1.57
2018-09-26T04:06:34.535Z,1.87
2018-09-26T04:09:38.033Z,1.90
2018-09-26T04:12:41.664Z,1.60
2018-09-26T04:15:51.662Z,1.70
2018-09-26T04:18:55.119Z,1.37
2018-09-26T04:21:58.614Z,1.30
2018-09-26T04:25:02.088Z,1.30
2018-09-26T04:28:05.673Z,1.17
2018-09-26T04:31:09.243Z,1.30
2018-09-26T04:34:12.713Z,1.50
2018-09-26T04:37:16.213Z,1.40
2018-09-26T04:40:19.715Z,1.73
2018-09-26T04:43:23.308Z,1.77
2018-09-26T04:46:26.828Z,1.40
2018-09-26T04:49:30.537Z,1.80
2018-09-26T04:52:34.136Z,1.37
2018-09-26T04:55:37.646Z,1.40
2018-09-26T04:58:41.173Z,1.53
2018-09-26T05:01:44.693Z,1.50
2018-09-26T05:04:48.174Z,1.60
2018-09-26T05:07:51.800Z,1.10
2018-09-26T05:10:55.288Z,1.10
2018-09-26T05:13:58.885Z,1.40
2018-09-26T05:17:02.431Z,1.63
2018-09-26T05:20:06.040Z,1.70
2018-09-26T05:23:09.714Z,1.73
2018-09-26T05:26:13.218Z,1.32
2018-09-26T05:29:16.709Z,1.63
2018-09-26T05:32:20.198Z,1.70
2018-09-26T05:35:23.695Z,1.60
2018-09-26T05:38:27.196Z,1.97
2018-09-26T05:41:30.740Z,1.90
2018-09-26T05:44:34.203Z,1.60
2018-09-26T05:47:37.706Z,1.73
2018-09-26T05:50:41.232Z,1.50
2018-09-26T05:53:44.730Z,1.53
2018-09-26T05:56:48.250Z,1.33
2018-09-26T05:59:51.722Z,1.23
2018-09-26T06:02:55.227Z,1.37
2018-09-26T06:05:58.833Z,2.07
2018-09-26T06:09:06.194Z,2.40
2018-09-26T06:12:10.669Z,1.87
2018-09-26T06:15:14.205Z,1.40
2018-09-26T06:18:17.788Z,1.40
2018-09-26T06:21:21.300Z,1.47
2018-09-26T06:24:24.760Z,1.33
2018-09-26T06:27:28.328Z,1.40
2018-09-26T06:30:31.783Z,1.47
2018-09-26T06:33:35.535Z,1.60
2018-09-26T06:36:38.963Z,1.23
2018-09-26T06:39:42.471Z,1.60
2018-09-26T06:42:46.103Z,1.90
2018-09-26T06:45:49.590Z,1.40
2018-09-26T06:48:53.100Z,1.40
2018-09-26T06:51:56.592Z,1.23
2018-09-26T06:55:00.158Z,1.67
2018-09-26T06:58:03.604Z,1.87
2018-09-26T07:01:07.213Z,1.50
2018-09-26T07:04:10.691Z,1.23
2018-09-26T07:07:14.387Z,1.57
2018-09-26T07:10:17.838Z,1.50
2018-09-26T07:13:21.310Z,1.40
2018-09-26T07:16:24.899Z,1.40
2018-09-26T07:19:28.416Z,1.30
2018-09-26T07:22:31.908Z,1.40
2018-09-26T07:25:36.467Z,1.43
2018-09-26T07:28:39.955Z,1.17
2018-09-26T07:31:43.490Z,1.53
2018-09-26T07:34:48.011Z,1.50
2018-09-26T07:37:51.525Z,1.70
2018-09-26T07:40:55.007Z,1.63
2018-09-26T07:43:58.598Z,1.60
2018-09-26T07:47:02.125Z,1.70
2018-09-26T07:50:05.732Z,1.43
2018-09-26T07:53:10.309Z,1.50
2018-09-26T07:56:13.812Z,2.00
2018-09-26T07:59:17.357Z,1.30
2018-09-26T08:02:22.814Z,1.33
2018-09-26T08:05:26.323Z,1.60
2018-09-26T08:08:29.925Z,1.50
2018-09-26T08:11:33.432Z,1.70
2018-09-26T08:14:36.943Z,1.80
2018-09-26T08:17:40.521Z,1.60
2018-09-26T08:20:44.047Z,1.47
2018-09-26T08:23:47.589Z,1.60
2018-09-26T08:26:51.032Z,1.90
2018-09-26T08:29:54.502Z,1.50
2018-09-26T08:32:58.021Z,1.67
2018-09-26T08:36:01.611Z,1.60
2018-09-26T08:39:09.515Z,1.43
2018-09-26T08:42:13.179Z,1.40
2018-09-26T08:45:16.685Z,1.50
2018-09-26T08:48:20.460Z,1.53
2018-09-26T08:51:24.852Z,1.63
2018-09-26T08:54:28.375Z,2.00
2018-09-26T08:57:31.898Z,1.90
2018-09-26T09:00:36.258Z,1.97
2018-09-26T09:03:39.713Z,1.57
2018-09-26T09:06:43.455Z,1.73
2018-09-26T09:09:47.100Z,1.67
2018-09-26T09:12:50.541Z,1.33
2018-09-26T09:15:54.050Z,1.70
2018-09-26T09:18:57.677Z,1.40
2018-09-26T09:22:01.160Z,1.87
2018-09-26T09:25:04.723Z,1.60
2018-09-26T09:28:08.251Z,1.90
2018-09-26T09:31:11.777Z,1.63
2018-09-26T09:34:15.260Z,1.50
2018-09-26T09:37:18.766Z,1.57
2018-09-26T09:40:22.265Z,2.10
2018-09-26T09:43:25.826Z,1.63
2018-09-26T09:46:29.294Z,1.83
2018-09-26T09:49:32.778Z,1.90
2018-09-26T09:52:36.296Z,1.77
2018-09-26T09:55:39.805Z,1.80
2018-09-26T09:58:43.301Z,1.50
2018-09-26T10:01:46.900Z,1.50
2018-09-26T10:04:50.460Z,1.57
2018-09-26T10:07:54.391Z,1.60
2018-09-26T10:10:58.009Z,1.43
2018-09-26T10:14:01.622Z,1.60
2018-09-26T10:17:05.226Z,1.53
2018-09-26T10:20:08.865Z,1.53
2018-09-26T10:23:12.315Z,1.57
2018-09-26T10:26:15.848Z,1.60
2018-09-26T10:29:19.376Z,1.60
2018-09-26T10:32:22.872Z,1.53
2018-09-26T10:35:26.511Z,1.27
2018-09-26T10:38:30.042Z,1.70
2018-09-26T10:41:33.609Z,1.60
2018-09-26T10:44:37.243Z,1.20
2018-09-26T10:47:40.779Z,1.40
2018-09-26T10:50:44.248Z,1.77
2018-09-26T10:53:47.763Z,1.40
2018-09-26T10:56:51.260Z,1.40
2018-09-26T10:59:54.889Z,1.33
2018-09-26T11:02:58.450Z,1.80
2018-09-26T11:06:02.034Z,1.10
2018-09-26T11:09:08.270Z,1.50
2018-09-26T11:12:11.796Z,1.20
2018-09-26T11:15:15.321Z,1.20
2018-09-26T11:18:18.742Z,1.63
2018-09-26T11:21:22.209Z,1.53
2018-09-26T11:24:25.648Z,1.47
2018-09-26T11:27:29.158Z,1.57
2018-09-26T11:30:32.547Z,1.60
2018-09-26T11:33:36.100Z,1.43
2018-09-26T11:36:39.596Z,1.30
2018-09-26T11:42:40.354Z,1.40
2018-09-26T11:45:43.816Z,1.60
2018-09-26T11:48:47.229Z,1.20
2018-09-26T11:51:50.717Z,1.23
2018-09-26T11:54:54.242Z,1.33
2018-09-26T11:57:57.727Z,1.20
2018-09-26T12:01:01.277Z,1.33
2018-09-26T12:04:04.782Z,1.50
2018-09-26T12:07:15.033Z,1.50
2018-09-26T12:10:18.499Z,1.90
2018-09-26T12:13:21.909Z,1.47
2018-09-26T12:16:25.555Z,1.40
2018-09-26T12:19:28.953Z,2.20
2018-09-26T12:22:32.447Z,1.47
2018-09-26T12:25:35.918Z,1.43
2018-09-26T12:28:39.410Z,1.60
2018-09-26T12:31:42.811Z,1.33
2018-09-26T12:34:46.256Z,1.20
2018-09-26T12:37:49.715Z,1.50
2018-09-26T12:40:53.203Z,1.33
2018-09-26T12:43:57.857Z,1.50
2018-09-26T12:47:01.333Z,1.70
2018-09-26T12:50:05.617Z,1.37
2018-09-26T12:53:09.520Z,1.43
2018-09-26T12:56:13.189Z,1.50
2018-09-26T12:59:16.690Z,1.60
2018-09-26T13:02:20.395Z,1.57
2018-09-26T13:05:23.913Z,1.60
2018-09-26T13:08:27.436Z,1.37
2018-09-26T13:11:31.051Z,1.13
2018-09-26T13:14:34.521Z,1.43
2018-09-26T13:17:38.332Z,1.27
2018-09-26T13:20:41.815Z,1.20
2018-09-26T13:23:45.456Z,1.20
2018-09-26T13:26:48.931Z,1.80
2018-09-26T13:29:52.446Z,1.47
2018-09-26T13:32:56.019Z,1.67
2018-09-26T13:35:59.473Z,1.53
2018-09-26T13:39:03.128Z,1.10
2018-09-26T13:42:06.767Z,1.20
2018-09-26T13:45:10.176Z,1.37
2018-09-26T13:48:13.686Z,1.10
2018-09-26T13:51:17.198Z,1.30
2018-09-26T13:54:20.934Z,1.07
2018-09-26T13:57:24.473Z,1.00
2018-09-26T14:00:27.956Z,1.30
2018-09-26T14:03:31.428Z,1.43
2018-09-26T14:06:35.173Z,1.40
2018-09-26T14:09:38.688Z,1.10
2018-09-26T14:12:42.510Z,1.27
2018-09-26T14:15:45.897Z,1.13
2018-09-26T14:18:49.677Z,2.43
2018-09-26T14:21:53.307Z,1.20
2018-09-26T14:24:57.042Z,1.60
2018-09-26T14:28:00.916Z,1.30
2018-09-26T14:31:05.092Z,1.27
2018-09-26T14:34:08.776Z,1.30
2018-09-26T14:37:12.367Z,1.30
2018-09-26T14:40:16.077Z,1.30
2018-09-26T14:43:19.816Z,1.13
2018-09-26T14:46:23.677Z,1.10
2018-09-26T14:49:27.260Z,1.10
2018-09-26T14:52:31.140Z,1.07
2018-09-26T14:55:34.590Z,1.40
2018-09-26T14:58:38.754Z,1.10
2018-09-26T15:01:42.403Z,1.33
2018-09-26T15:04:46.271Z,1.30
2018-09-26T15:07:49.882Z,1.20
2018-09-26T15:10:53.582Z,1.50
2018-09-26T15:13:57.562Z,1.17
2018-09-26T15:17:01.212Z,1.20
2018-09-26T15:20:05.369Z,1.77
2018-09-26T15:23:09.133Z,1.13
2018-09-26T15:26:12.883Z,1.20
2018-09-26T15:29:16.514Z,1.20
2018-09-26T15:32:20.291Z,1.10
2018-09-26T15:35:23.971Z,1.33
2018-09-26T15:38:27.533Z,1.30
2018-09-26T15:41:31.260Z,1.40
2018-09-26T15:44:35.874Z,1.30
2018-09-26T15:47:39.471Z,1.47
2018-09-26T15:50:43.214Z,1.20
2018-09-26T15:53:46.893Z,1.47
2018-09-26T15:56:50.478Z,1.10
2018-09-26T15:59:54.318Z,1.20
2018-09-26T16:02:57.867Z,1.10
2018-09-26T16:06:01.515Z,1.30
2018-09-26T16:09:05.879Z,1.40
2018-09-26T16:12:09.424Z,0.97
2018-09-26T16:15:12.926Z,1.40
2018-09-26T16:18:16.515Z,1.30
2018-09-26T16:21:20.044Z,1.30
2018-09-26T16:24:23.596Z,1.03
2018-09-26T16:27:27.068Z,1.07
2018-09-26T16:30:30.647Z,1.20
2018-09-26T16:33:34.253Z,1.63
2018-09-26T16:36:39.744Z,1.90
2018-09-26T16:39:43.206Z,1.53
2018-09-26T16:42:47.014Z,1.27
2018-09-26T16:45:50.935Z,1.50
2018-09-26T16:48:54.436Z,1.40
2018-09-26T16:51:58.145Z,1.70
2018-09-26T16:55:01.666Z,1.57
2018-09-26T16:58:05.204Z,1.70
2018-09-26T17:01:08.766Z,1.63
2018-09-26T17:04:12.412Z,1.40
2018-09-26T17:07:15.904Z,1.40
2018-09-26T17:10:19.425Z,1.57
2018-09-26T17:13:22.868Z,2.40
2018-09-26T17:16:26.562Z,1.93
2018-09-26T17:19:30.078Z,1.73
2018-09-26T17:22:33.618Z,1.60
2018-09-26T17:25:37.367Z,2.13
2018-09-26T17:28:40.960Z,1.93
2018-09-26T17:31:44.417Z,1.90
2018-09-26T17:34:48.015Z,2.20
2018-09-26T17:37:51.849Z,2.70
2018-09-26T17:40:56.360Z,2.77
2018-09-26T17:43:59.866Z,2.63
2018-09-26T17:47:03.405Z,2.10
2018-09-26T17:50:07.455Z,1.70
2018-09-26T17:53:10.967Z,1.70
2018-09-26T17:56:14.496Z,1.70
2018-09-26T17:59:18.010Z,1.70
2018-09-26T18:02:21.569Z,1.60
2018-09-26T18:05:25.111Z,1.77
2018-09-26T18:08:28.628Z,2.10
2018-09-26T18:11:32.145Z,2.03
2018-09-26T18:14:35.827Z,3.53
2018-09-26T18:17:39.320Z,6.33
2018-09-26T18:20:42.895Z,5.80
2018-09-26T18:23:46.433Z,4.80
2018-09-26T18:26:49.948Z,4.40
2018-09-26T18:29:53.538Z,3.83
2018-09-26T18:32:57.256Z,4.30
2018-09-26T18:36:00.723Z,4.60
2018-09-26T18:39:05.780Z,4.27
2018-09-26T18:42:09.259Z,4.07
2018-09-26T18:45:12.889Z,4.57
2018-09-26T18:48:16.372Z,4.63
2018-09-26T18:51:19.923Z,4.10
2018-09-26T18:54:23.448Z,4.00
2018-09-26T18:57:27.061Z,4.20
2018-09-26T19:00:30.700Z,4.00
2018-09-26T19:03:34.267Z,4.40
2018-09-26T19:06:39.972Z,4.30
2018-09-26T19:09:43.497Z,4.40
2018-09-26T19:12:47.240Z,4.50
2018-09-26T19:15:51.730Z,4.30
2018-09-26T19:18:55.285Z,4.57
2018-09-26T19:21:58.873Z,4.00
2018-09-26T19:25:02.383Z,3.87
2018-09-26T19:28:07.072Z,4.30
2018-09-26T19:31:13.165Z,4.67
2018-09-26T19:34:17.911Z,5.10
2018-09-26T19:37:22.394Z,4.93
2018-09-26T19:40:25.963Z,5.07
2018-09-26T19:43:29.595Z,5.40
2018-09-26T19:46:33.114Z,5.00
2018-09-26T19:49:36.661Z,4.20
2018-09-26T19:52:40.256Z,4.20
2018-09-26T19:55:43.921Z,3.60
2018-09-26T19:58:47.567Z,3.77
2018-09-26T20:01:51.101Z,3.73
2018-09-26T20:04:54.716Z,3.90
2018-09-26T20:07:59.351Z,3.97
2018-09-26T20:11:03.489Z,3.50
2018-09-26T20:14:07.296Z,4.00
2018-09-26T20:17:10.841Z,3.20
2018-09-26T20:20:14.344Z,3.37
2018-09-26T20:23:17.897Z,3.80
2018-09-26T20:26:21.393Z,3.70
2018-09-26T20:29:25.189Z,4.00
2018-09-26T20:32:28.717Z,4.00
2018-09-26T20:35:32.417Z,4.50
2018-09-26T20:38:36.326Z,3.70
2018-09-26T20:41:40.256Z,4.57
2018-09-26T20:44:44.825Z,4.33
2018-09-26T20:47:50.317Z,4.10
2018-09-26T20:50:53.821Z,3.80
2018-09-26T20:53:57.725Z,3.10
2018-09-26T20:57:01.305Z,3.97
2018-09-26T21:00:05.726Z,3.00
2018-09-26T21:03:09.368Z,3.33
2018-09-26T21:06:13.984Z,3.60
2018-09-26T21:09:17.675Z,3.73
2018-09-26T21:12:21.253Z,3.20
2018-09-26T21:15:24.778Z,3.13
2018-09-26T21:18:28.378Z,3.20
2018-09-26T21:21:31.899Z,3.57
2018-09-26T21:24:35.579Z,3.40
2018-09-26T21:27:39.220Z,3.47
2018-09-26T21:30:43.090Z,3.23
2018-09-26T21:33:46.554Z,3.07
2018-09-26T21:36:53.828Z,3.27
2018-09-26T21:39:58.382Z,2.90
2018-09-26T21:43:01.817Z,3.00
2018-09-26T21:46:05.394Z,2.90
2018-09-26T21:49:09.044Z,3.27
2018-09-26T21:52:12.594Z,2.97
2018-09-26T21:55:16.332Z,3.07
2018-09-26T21:58:19.880Z,4.00
2018-09-26T22:01:23.551Z,3.47
2018-09-26T22:04:27.066Z,2.67
2018-09-26T22:07:30.501Z,3.47
2018-09-26T22:10:34.061Z,3.30
2018-09-26T22:13:39.729Z,3.00
2018-09-26T22:16:43.219Z,3.50
2018-09-26T22:19:50.441Z,3.07
2018-09-26T22:23:07.242Z,3.37
2018-09-26T22:26:18.045Z,2.93
2018-09-26T22:29:21.572Z,3.40
2018-09-26T22:32:26.067Z,3.00
2018-09-26T22:35:31.648Z,2.50
2018-09-26T22:38:43.591Z,2.90
2018-09-26T22:41:51.961Z,2.80
2018-09-26T22:44:59.224Z,2.70
2018-09-26T22:48:02.797Z,3.00
2018-09-26T22:51:06.370Z,2.90
2018-09-26T22:54:10.944Z,3.30
2018-09-26T22:57:14.495Z,2.70
2018-09-26T23:00:18.006Z,3.00
2018-09-26T23:03:21.533Z,3.20
2018-09-26T23:06:24.985Z,3.00
2018-09-26T23:09:28.713Z,3.30
2018-09-26T23:12:32.272Z,2.70
2018-09-26T23:15:37.819Z,2.90
2018-09-26T23:18:41.278Z,2.57
2018-09-26T23:21:45.157Z,2.90
2018-09-26T23:24:48.665Z,2.90
2018-09-26T23:27:52.165Z,2.70
2018-09-26T23:30:55.695Z,2.90
2018-09-26T23:33:59.176Z,2.60
2018-09-26T23:37:02.744Z,2.60
2018-09-26T23:40:06.515Z,2.77
2018-09-26T23:43:09.985Z,2.93
2018-09-26T23:46:13.491Z,2.90
2018-09-26T23:49:17.055Z,2.60
2018-09-26T23:52:20.595Z,2.83
2018-09-26T23:55:24.191Z,2.87
2018-09-26T23:58:27.701Z,2.83
